Time;durP1;ratioP1;P1;durP2;ratioP2;P2;SDS_P1;SDS_P2;PMS_P1;PMS_P2;Temp;Humidity;BMP_temperature;BMP_pressure;BME280_temperature;BME280_humidity;BME280_pressure;Samples;Min_cycle;Max_cycle;Signal;HPM_P1;HPM_P2
2022/11/04 00:02:32;0.00;0.00;0.62;0.00;0.00;0.62;2.27;1.60;;;27.30;26.40;;;;;;2265617;61;20356;-64
2022/11/04 00:05:17;0.00;0.00;0.62;0.00;0.00;0.62;1.73;1.30;;;27.30;26.50;;;;;;2265008;61;20470;-65
2022/11/04 00:14:14;0.00;0.00;0.62;0.00;0.00;0.62;2.23;1.40;;;27.30;26.50;;;;;;2265205;61;20728;-64
2022/11/04 00:17:18;0.00;0.00;0.62;0.00;0.00;0.62;2.07;1.47;;;27.30;26.50;;;;;;2265557;61;20627;-65
2022/11/04 00:29:16;0.00;0.00;0.62;0.00;0.00;0.62;1.77;1.30;;;27.30;26.50;;;;;;2265371;61;20373;-64
2022/11/04 00:35:05;0.00;0.00;0.62;0.00;0.00;0.62;1.83;1.20;;;27.30;27.00;;;;;;2265384;61;20352;-64
2022/11/04 00:37:50;0.00;0.00;0.62;0.00;0.00;0.62;1.77;1.07;;;27.30;26.50;;;;;;2265363;61;20350;-64
2022/11/04 00:40:35;0.00;0.00;0.62;0.00;0.00;0.62;1.70;1.10;;;27.30;26.50;;;;;;2264854;61;20612;-65
2022/11/04 00:43:21;0.00;0.00;0.62;0.00;0.00;0.62;3.30;1.40;;;27.30;26.50;;;;;;2265484;61;20389;-65
2022/11/04 00:46:05;0.00;0.00;0.62;0.00;0.00;0.62;2.23;1.20;;;27.30;26.50;;;;;;2265684;61;20430;-64
2022/11/04 00:48:50;0.00;0.00;0.62;0.00;0.00;0.62;1.93;1.33;;;27.30;26.50;;;;;;2265471;61;20365;-66
2022/11/04 00:51:34;0.00;0.00;0.62;0.00;0.00;0.62;2.13;1.33;;;27.30;26.50;;;;;;2266003;61;20612;-64
2022/11/04 00:54:19;0.00;0.00;0.62;0.00;0.00;0.62;2.40;1.43;;;27.20;26.50;;;;;;2266041;61;20356;-64
2022/11/04 00:57:04;0.00;0.00;0.62;0.00;0.00;0.62;1.90;1.40;;;27.20;26.40;;;;;;2265612;61;20465;-67
2022/11/04 00:59:49;0.00;0.00;0.62;0.00;0.00;0.62;2.13;1.47;;;27.30;26.50;;;;;;2266003;61;20589;-67
2022/11/04 01:02:34;0.00;0.00;0.62;0.00;0.00;0.62;1.97;1.63;;;27.30;26.50;;;;;;2265506;61;20365;-67
2022/11/04 01:05:19;0.00;0.00;0.62;0.00;0.00;0.62;3.07;1.90;;;27.30;26.40;;;;;;2266079;61;20404;-67
2022/11/04 01:08:04;0.00;0.00;0.62;0.00;0.00;0.62;2.70;1.70;;;27.20;26.40;;;;;;2266122;61;20362;-67
2022/11/04 01:10:49;0.00;0.00;0.62;0.00;0.00;0.62;2.87;1.87;;;27.20;26.40;;;;;;2265351;61;20384;-67
2022/11/04 01:13:34;0.00;0.00;0.62;0.00;0.00;0.62;2.63;1.93;;;27.20;26.40;;;;;;2265472;61;20361;-67
2022/11/04 01:16:21;0.00;0.00;0.62;0.00;0.00;0.62;2.07;1.47;;;27.20;26.40;;;;;;2266240;61;20381;-67
2022/11/04 01:19:06;0.00;0.00;0.62;0.00;0.00;0.62;1.90;1.50;;;27.20;26.40;;;;;;2265574;61;20365;-67
2022/11/04 01:21:51;0.00;0.00;0.62;0.00;0.00;0.62;2.70;1.70;;;27.10;26.40;;;;;;2265960;61;20390;-66
2022/11/04 01:24:37;0.00;0.00;0.62;0.00;0.00;0.62;2.00;1.37;;;27.10;26.40;;;;;;2265086;61;20381;-67
2022/11/04 01:27:21;0.00;0.00;0.62;0.00;0.00;0.62;2.87;1.70;;;27.10;26.40;;;;;;2266237;61;20377;-67
2022/11/04 01:30:08;0.00;0.00;0.62;0.00;0.00;0.62;2.80;1.80;;;27.00;26.30;;;;;;2265907;61;20484;-67
2022/11/04 01:32:54;0.00;0.00;0.62;0.00;0.00;0.62;3.73;1.97;;;27.00;26.40;;;;;;2265395;61;20408;-67
2022/11/04 01:35:38;0.00;0.00;0.62;0.00;0.00;0.62;2.53;2.00;;;27.00;26.40;;;;;;2265869;61;20476;-67
2022/11/04 01:38:23;0.00;0.00;0.62;0.00;0.00;0.62;1.73;1.47;;;27.00;26.40;;;;;;2266020;61;21037;-67
2022/11/04 01:41:15;0.00;0.00;0.62;0.00;0.00;0.62;2.30;1.80;;;27.00;26.40;;;;;;2265444;61;20733;-67
2022/11/04 01:44:02;0.00;0.00;0.62;0.00;0.00;0.62;2.13;1.60;;;27.00;26.50;;;;;;2265678;61;20433;-66
2022/11/04 01:46:51;0.00;0.00;0.62;0.00;0.00;0.62;1.87;1.30;;;26.90;26.50;;;;;;2265330;61;20508;-68
2022/11/04 01:49:40;0.00;0.00;0.62;0.00;0.00;0.62;2.20;1.63;;;26.90;26.50;;;;;;2266107;61;20357;-66
2022/11/04 01:52:31;0.00;0.00;0.62;0.00;0.00;0.62;3.60;2.30;;;26.90;26.50;;;;;;2265863;61;20369;-67
2022/11/04 01:55:21;0.00;0.00;0.62;0.00;0.00;0.62;2.20;1.70;;;26.90;26.50;;;;;;2265132;61;20364;-67
2022/11/04 01:58:12;0.00;0.00;0.62;0.00;0.00;0.62;3.17;1.90;;;26.80;26.50;;;;;;2265821;61;20392;-66
2022/11/04 02:00:56;0.00;0.00;0.62;0.00;0.00;0.62;2.50;1.83;;;26.80;27.10;;;;;;2266046;61;20405;-67
2022/11/04 02:03:49;0.00;0.00;0.62;0.00;0.00;0.62;2.20;1.50;;;26.80;26.70;;;;;;2265285;61;20760;-67
2022/11/04 02:06:35;0.00;0.00;0.62;0.00;0.00;0.62;2.30;1.70;;;26.70;26.60;;;;;;2265682;61;20604;-67
2022/11/04 02:09:21;0.00;0.00;0.62;0.00;0.00;0.62;1.83;1.43;;;26.70;26.60;;;;;;2265218;61;20364;-66
2022/11/04 02:15:10;0.00;0.00;0.62;0.00;0.00;0.62;2.50;1.93;;;26.60;26.70;;;;;;2265892;61;20353;-67
2022/11/04 02:18:21;0.00;0.00;0.62;0.00;0.00;0.62;2.40;1.60;;;26.60;26.80;;;;;;2264767;61;20441;-67
2022/11/04 02:21:35;0.00;0.00;0.62;0.00;0.00;0.62;2.43;1.70;;;26.50;26.70;;;;;;2265723;61;20364;-66
2022/11/04 02:25:01;0.00;0.00;0.62;0.00;0.00;0.62;2.80;1.53;;;26.50;26.80;;;;;;2264777;61;20432;-67
2022/11/04 02:28:09;0.00;0.00;0.62;0.00;0.00;0.62;2.77;1.83;;;26.50;26.80;;;;;;2265862;61;20638;-66
2022/11/04 02:31:07;0.00;0.00;0.62;0.00;0.00;0.62;2.70;1.80;;;26.40;26.90;;;;;;2265981;61;20364;-66
2022/11/04 02:34:00;0.00;0.00;0.62;0.00;0.00;0.62;2.03;1.40;;;26.40;26.90;;;;;;2265682;61;20421;-67
2022/11/04 02:36:55;0.00;0.00;0.62;0.00;0.00;0.62;2.00;1.50;;;26.30;26.90;;;;;;2265753;61;20366;-66
2022/11/04 02:39:51;0.00;0.00;0.62;0.00;0.00;0.62;2.30;1.60;;;26.30;26.90;;;;;;2265232;61;20364;-67
2022/11/04 02:42:44;0.00;0.00;0.62;0.00;0.00;0.62;2.00;1.30;;;26.30;26.90;;;;;;2265702;61;20405;-66
2022/11/04 02:45:37;0.00;0.00;0.62;0.00;0.00;0.62;2.70;1.27;;;26.30;26.90;;;;;;2265270;61;20871;-67
2022/11/04 02:48:29;0.00;0.00;0.62;0.00;0.00;0.62;1.80;1.47;;;26.30;26.90;;;;;;2265789;61;20365;-67
2022/11/04 02:51:21;0.00;0.00;0.62;0.00;0.00;0.62;1.73;1.37;;;26.30;26.90;;;;;;2265551;61;20373;-67
2022/11/04 02:54:10;0.00;0.00;0.62;0.00;0.00;0.62;1.67;1.20;;;26.20;26.90;;;;;;2264968;61;20392;-67
2022/11/04 02:56:59;0.00;0.00;0.62;0.00;0.00;0.62;2.40;1.37;;;26.20;27.40;;;;;;2265631;61;20413;-66
2022/11/04 02:59:48;0.00;0.00;0.62;0.00;0.00;0.62;1.67;1.30;;;26.20;26.90;;;;;;2265891;61;20381;-67
2022/11/04 03:02:38;0.00;0.00;0.62;0.00;0.00;0.62;1.80;1.47;;;26.20;26.90;;;;;;2265102;61;20380;-67
2022/11/04 03:05:28;0.00;0.00;0.62;0.00;0.00;0.62;1.60;1.27;;;26.20;26.90;;;;;;2265476;61;20484;-67
2022/11/04 03:08:20;0.00;0.00;0.62;0.00;0.00;0.62;2.00;1.30;;;26.20;27.00;;;;;;2265098;61;20591;-67
2022/11/04 03:11:10;0.00;0.00;0.62;0.00;0.00;0.62;4.20;1.50;;;26.20;27.00;;;;;;2265777;61;20404;-67
2022/11/04 03:14:00;0.00;0.00;0.62;0.00;0.00;0.62;1.87;1.20;;;26.20;27.00;;;;;;2265451;61;20745;-67
2022/11/04 03:16:49;0.00;0.00;0.62;0.00;0.00;0.62;2.00;1.30;;;26.20;27.00;;;;;;2265010;61;20412;-67
2022/11/04 03:19:43;0.00;0.00;0.62;0.00;0.00;0.62;2.20;1.40;;;26.10;27.00;;;;;;2265628;61;20437;-67
2022/11/04 03:22:34;0.00;0.00;0.62;0.00;0.00;0.62;2.07;1.23;;;26.10;27.00;;;;;;2265856;61;20379;-66
2022/11/04 03:25:20;0.00;0.00;0.62;0.00;0.00;0.62;1.83;1.20;;;26.10;27.00;;;;;;2265182;61;20393;-66
2022/11/04 03:28:21;0.00;0.00;0.62;0.00;0.00;0.62;1.70;1.17;;;26.00;26.90;;;;;;2265581;61;20769;-66
2022/11/04 03:31:10;0.00;0.00;0.62;0.00;0.00;0.62;1.60;0.90;;;26.00;26.80;;;;;;2265025;61;20512;-67
2022/11/04 03:33:56;0.00;0.00;0.62;0.00;0.00;0.62;1.80;1.03;;;25.90;26.80;;;;;;2265418;61;20725;-67
2022/11/04 03:36:41;0.00;0.00;0.62;0.00;0.00;0.62;2.47;1.10;;;25.80;26.60;;;;;;2265738;61;20453;-67
2022/11/04 03:39:27;0.00;0.00;0.62;0.00;0.00;0.62;1.90;1.10;;;25.80;26.70;;;;;;2264922;61;20451;-67
2022/11/04 03:42:19;0.00;0.00;0.62;0.00;0.00;0.62;1.80;1.10;;;25.80;27.20;;;;;;2265561;61;20364;-67
2022/11/04 03:45:05;0.00;0.00;0.62;0.00;0.00;0.62;1.57;0.90;;;25.70;26.70;;;;;;2264910;61;20419;-67
2022/11/04 03:47:50;0.00;0.00;0.62;0.00;0.00;0.62;1.70;1.10;;;25.70;26.70;;;;;;2265770;61;20381;-66
2022/11/04 03:50:41;0.00;0.00;0.62;0.00;0.00;0.62;2.17;0.90;;;25.60;26.70;;;;;;2265567;61;20353;-67
2022/11/04 03:53:29;0.00;0.00;0.62;0.00;0.00;0.62;1.70;0.97;;;25.50;26.60;;;;;;2264760;61;20362;-66
2022/11/04 03:56:58;0.00;0.00;0.62;0.00;0.00;0.62;1.53;0.83;;;25.50;26.50;;;;;;2265519;61;20388;-66
2022/11/04 04:00:05;0.00;0.00;0.62;0.00;0.00;0.62;2.10;1.50;;;25.40;26.50;;;;;;2265580;61;20744;-66
2022/11/04 04:03:04;0.00;0.00;0.62;0.00;0.00;0.62;1.90;1.00;;;25.30;26.40;;;;;;2265761;61;20352;-65
2022/11/04 04:05:54;0.00;0.00;0.62;0.00;0.00;0.62;1.60;0.90;;;25.20;26.40;;;;;;2265511;61;20396;-66
2022/11/04 04:08:43;0.00;0.00;0.62;0.00;0.00;0.62;2.43;1.10;;;25.10;26.40;;;;;;2265006;61;20718;-67
2022/11/04 04:11:38;0.00;0.00;0.62;0.00;0.00;0.62;1.60;1.03;;;25.10;26.50;;;;;;2265321;61;20434;-66
2022/11/04 04:14:39;0.00;0.00;0.62;0.00;0.00;0.62;2.13;1.20;;;25.00;26.50;;;;;;2265624;61;20476;-67
2022/11/04 04:17:31;0.00;0.00;0.62;0.00;0.00;0.62;1.60;1.13;;;24.90;26.60;;;;;;2265704;61;20784;-66
2022/11/04 04:20:19;0.00;0.00;0.62;0.00;0.00;0.62;2.00;1.10;;;24.80;26.60;;;;;;2266250;61;20371;-67
2022/11/04 04:29:21;0.00;0.00;0.62;0.00;0.00;0.62;2.03;1.33;;;24.60;26.80;;;;;;2266374;61;20686;-67
2022/11/04 04:32:06;0.00;0.00;0.62;0.00;0.00;0.62;1.80;1.20;;;24.50;26.80;;;;;;2266219;61;20488;-66
2022/11/04 04:35:40;0.00;0.00;0.62;0.00;0.00;0.62;1.70;1.17;;;24.40;26.80;;;;;;2266040;61;20361;-67
2022/11/04 04:47:30;0.00;0.00;0.62;0.00;0.00;0.62;2.60;1.57;;;24.20;27.00;;;;;;2265912;61;20768;-66
2022/11/04 04:50:19;0.00;0.00;0.62;0.00;0.00;0.62;3.23;1.90;;;24.10;27.00;;;;;;2266279;61;20429;-66
2022/11/04 04:53:04;0.00;0.00;0.62;0.00;0.00;0.62;4.13;1.70;;;24.10;27.00;;;;;;2265504;61;20401;-67
2022/11/04 04:55:49;0.00;0.00;0.62;0.00;0.00;0.62;4.17;1.70;;;24.10;27.10;;;;;;2266039;61;20415;-66
2022/11/04 04:58:33;0.00;0.00;0.62;0.00;0.00;0.62;2.30;1.47;;;24.00;27.20;;;;;;2265853;61;20404;-65
2022/11/04 05:01:19;0.00;0.00;0.62;0.00;0.00;0.62;2.40;1.70;;;23.90;27.10;;;;;;2265577;61;20396;-66
2022/11/04 05:04:04;0.00;0.00;0.62;0.00;0.00;0.62;2.50;1.67;;;23.90;27.70;;;;;;2265781;61;20375;-66
2022/11/04 05:06:49;0.00;0.00;0.62;0.00;0.00;0.62;2.37;1.80;;;23.90;27.20;;;;;;2265567;61;20738;-67
2022/11/04 05:09:34;0.00;0.00;0.62;0.00;0.00;0.62;2.30;1.60;;;23.80;27.10;;;;;;2266196;61;20401;-64
2022/11/04 05:12:19;0.00;0.00;0.62;0.00;0.00;0.62;2.00;1.40;;;23.80;27.20;;;;;;2266087;61;20373;-65
2022/11/04 05:15:05;0.00;0.00;0.62;0.00;0.00;0.62;3.13;1.70;;;23.70;27.20;;;;;;2265210;61;20698;-65
2022/11/04 05:17:55;0.00;0.00;0.62;0.00;0.00;0.62;2.37;2.00;;;23.70;27.30;;;;;;2265939;61;20420;-66
2022/11/04 05:20:40;0.00;0.00;0.62;0.00;0.00;0.62;2.03;1.73;;;23.70;27.30;;;;;;2266366;61;20361;-66
2022/11/04 05:23:25;0.00;0.00;0.62;0.00;0.00;0.62;1.80;1.40;;;23.60;27.30;;;;;;2265311;61;20689;-67
2022/11/04 05:26:09;0.00;0.00;0.62;0.00;0.00;0.62;3.60;1.30;;;23.60;27.30;;;;;;2265872;61;20408;-67
2022/11/04 05:28:54;0.00;0.00;0.62;0.00;0.00;0.62;2.00;1.53;;;23.60;27.40;;;;;;2265334;61;20400;-66
2022/11/04 05:31:39;0.00;0.00;0.62;0.00;0.00;0.62;2.30;1.70;;;23.60;27.50;;;;;;2265765;61;20955;-67
2022/11/04 05:34:25;0.00;0.00;0.62;0.00;0.00;0.62;2.90;1.63;;;23.50;27.40;;;;;;2265736;61;20469;-65
2022/11/04 05:37:09;0.00;0.00;0.62;0.00;0.00;0.62;2.30;1.90;;;23.50;27.40;;;;;;2265386;61;20385;-66
2022/11/04 05:39:55;0.00;0.00;0.62;0.00;0.00;0.62;2.57;1.73;;;23.50;27.40;;;;;;2265809;61;20591;-64
2022/11/04 05:42:40;0.00;0.00;0.62;0.00;0.00;0.62;2.43;1.87;;;23.40;27.30;;;;;;2266047;61;20361;-67
2022/11/04 05:45:25;0.00;0.00;0.62;0.00;0.00;0.62;3.07;1.90;;;23.40;27.40;;;;;;2265302;61;20380;-66
2022/11/04 05:48:10;0.00;0.00;0.62;0.00;0.00;0.62;2.17;1.97;;;23.40;27.40;;;;;;2265751;61;20387;-69
2022/11/04 05:50:56;0.00;0.00;0.62;0.00;0.00;0.62;1.90;1.70;;;23.40;27.50;;;;;;2265182;61;20724;-69
2022/11/04 05:53:41;0.00;0.00;0.62;0.00;0.00;0.62;2.43;1.70;;;23.30;27.50;;;;;;2265947;61;20361;-64
2022/11/04 05:56:26;0.00;0.00;0.62;0.00;0.00;0.62;2.20;1.90;;;23.30;27.50;;;;;;2265721;61;20441;-63
2022/11/04 05:59:11;0.00;0.00;0.62;0.00;0.00;0.62;2.47;2.07;;;23.30;27.50;;;;;;2265334;61;20357;-63
2022/11/04 06:01:55;0.00;0.00;0.62;0.00;0.00;0.62;2.27;1.60;;;23.30;28.00;;;;;;2265866;61;20725;-63
2022/11/04 06:04:40;0.00;0.00;0.62;0.00;0.00;0.62;2.63;2.20;;;23.30;27.40;;;;;;2265689;61;20755;-63
2022/11/04 06:07:26;0.00;0.00;0.62;0.00;0.00;0.62;2.03;1.83;;;23.20;27.40;;;;;;2265336;61;20384;-63
2022/11/04 06:10:10;0.00;0.00;0.62;0.00;0.00;0.62;2.30;2.00;;;23.20;27.40;;;;;;2265785;61;20579;-63
2022/11/04 06:12:55;0.00;0.00;0.62;0.00;0.00;0.62;4.50;2.00;;;23.20;27.30;;;;;;2265962;61;20464;-62
2022/11/04 06:15:40;0.00;0.00;0.62;0.00;0.00;0.62;3.30;1.87;;;23.10;27.30;;;;;;2265615;61;20365;-72
2022/11/04 06:18:25;0.00;0.00;0.62;0.00;0.00;0.62;3.30;2.67;;;23.10;27.30;;;;;;2265784;61;20593;-63
2022/11/04 06:21:23;0.00;0.00;0.62;0.00;0.00;0.62;2.60;2.27;;;23.10;27.90;;;;;;2265347;61;20361;-63
2022/11/04 06:24:09;0.00;0.00;0.62;0.00;0.00;0.62;2.60;2.40;;;23.10;27.90;;;;;;2265564;61;20353;-64
2022/11/04 06:26:54;0.00;0.00;0.62;0.00;0.00;0.62;3.13;2.30;;;23.10;27.40;;;;;;2265878;61;20586;-64
2022/11/04 06:29:40;0.00;0.00;0.62;0.00;0.00;0.62;2.80;2.13;;;23.00;27.30;;;;;;2265286;61;20580;-68
2022/11/04 06:32:25;0.00;0.00;0.62;0.00;0.00;0.62;2.43;1.40;;;23.00;27.30;;;;;;2265714;61;20361;-68
2022/11/04 06:35:10;0.00;0.00;0.62;0.00;0.00;0.62;2.20;1.70;;;23.00;27.50;;;;;;2265699;61;20361;-62
2022/11/04 06:37:55;0.00;0.00;0.62;0.00;0.00;0.62;2.33;1.30;;;23.00;27.60;;;;;;2266036;61;20353;-66
2022/11/04 06:40:40;0.00;0.00;0.62;0.00;0.00;0.62;2.53;1.47;;;23.00;27.60;;;;;;2265715;61;20365;-69
2022/11/04 06:43:26;0.00;0.00;0.62;0.00;0.00;0.62;1.77;1.17;;;23.00;27.60;;;;;;2265069;61;20384;-68
2022/11/04 06:46:26;0.00;0.00;0.62;0.00;0.00;0.62;2.47;1.10;;;23.00;27.60;;;;;;2265444;61;20396;-69
2022/11/04 06:49:13;0.00;0.00;0.62;0.00;0.00;0.62;1.63;1.20;;;23.10;27.70;;;;;;2265430;61;20376;-67
2022/11/04 06:51:59;0.00;0.00;0.62;0.00;0.00;0.62;1.50;1.00;;;23.10;27.70;;;;;;2265272;61;20400;-69
2022/11/04 06:54:45;0.00;0.00;0.62;0.00;0.00;0.62;1.40;0.97;;;23.20;28.30;;;;;;2264930;61;20357;-69
2022/11/04 06:57:31;0.00;0.00;0.62;0.00;0.00;0.62;2.20;1.50;;;23.20;27.70;;;;;;2265206;61;20499;-63
2022/11/04 07:00:17;0.00;0.00;0.62;0.00;0.00;0.62;2.53;1.53;;;23.30;27.80;;;;;;2265968;61;20365;-63
2022/11/04 07:03:02;0.00;0.00;0.62;0.00;0.00;0.62;2.40;1.30;;;23.40;27.80;;;;;;2265655;61;20397;-63
2022/11/04 07:05:47;0.00;0.00;0.62;0.00;0.00;0.62;1.90;1.37;;;23.40;27.70;;;;;;2265158;61;20485;-63
2022/11/04 07:08:31;0.00;0.00;0.62;0.00;0.00;0.62;2.30;1.73;;;23.50;27.80;;;;;;2265560;61;20645;-63
2022/11/04 07:11:17;0.00;0.00;0.62;0.00;0.00;0.62;1.70;1.30;;;23.50;27.70;;;;;;2265744;61;20426;-64
2022/11/04 07:14:03;0.00;0.00;0.62;0.00;0.00;0.62;2.10;1.40;;;23.50;27.70;;;;;;2264952;61;20415;-64
2022/11/04 07:16:50;0.00;0.00;0.62;0.00;0.00;0.62;2.33;1.50;;;23.60;27.70;;;;;;2265586;61;20368;-63
2022/11/04 07:19:34;0.00;0.00;0.62;0.00;0.00;0.62;2.43;1.67;;;23.70;27.70;;;;;;2265720;61;20383;-63
2022/11/04 07:22:19;0.00;0.00;0.62;0.00;0.00;0.62;2.37;1.40;;;23.70;27.70;;;;;;2265941;61;20361;-63
2022/11/04 07:25:05;0.00;0.00;0.62;0.00;0.00;0.62;2.47;1.30;;;23.80;27.70;;;;;;2265371;61;20384;-63
2022/11/04 07:27:50;0.00;0.00;0.62;0.00;0.00;0.62;1.80;1.10;;;23.80;27.60;;;;;;2264664;61;20423;-63
2022/11/04 07:30:36;0.00;0.00;0.62;0.00;0.00;0.62;1.70;1.40;;;23.80;27.60;;;;;;2265423;61;20451;-63
2022/11/04 07:33:20;0.00;0.00;0.62;0.00;0.00;0.62;2.47;1.80;;;23.90;27.60;;;;;;2265632;61;20373;-63
2022/11/04 07:36:08;0.00;0.00;0.62;0.00;0.00;0.62;1.97;1.17;;;23.90;27.60;;;;;;2265014;61;20377;-63
2022/11/04 07:38:53;0.00;0.00;0.62;0.00;0.00;0.62;1.70;1.30;;;23.90;27.60;;;;;;2265493;61;20384;-63
2022/11/04 07:41:38;0.00;0.00;0.62;0.00;0.00;0.62;1.97;1.37;;;24.00;27.60;;;;;;2265803;61;20361;-63
2022/11/04 07:44:23;0.00;0.00;0.62;0.00;0.00;0.62;1.80;1.23;;;24.00;27.50;;;;;;2265467;61;20381;-63
2022/11/04 07:47:09;0.00;0.00;0.62;0.00;0.00;0.62;2.90;1.20;;;24.00;27.50;;;;;;2265509;61;20420;-63
2022/11/04 07:49:54;0.00;0.00;0.62;0.00;0.00;0.62;4.50;1.40;;;24.10;27.50;;;;;;2265065;61;20432;-64
2022/11/04 07:52:39;0.00;0.00;0.62;0.00;0.00;0.62;1.80;1.20;;;24.10;27.50;;;;;;2265103;61;20361;-63
2022/11/04 07:55:24;0.00;0.00;0.62;0.00;0.00;0.62;2.30;1.60;;;24.10;27.50;;;;;;2266404;61;20364;-63
2022/11/04 07:58:08;0.00;0.00;0.62;0.00;0.00;0.62;1.67;1.07;;;24.20;27.50;;;;;;2265732;61;20356;-63
2022/11/04 08:00:58;0.00;0.00;0.62;0.00;0.00;0.62;1.87;1.20;;;24.20;27.40;;;;;;2266257;61;20376;-63
2022/11/04 08:03:44;0.00;0.00;0.62;0.00;0.00;0.62;1.70;1.20;;;24.20;27.40;;;;;;2266212;61;20519;-62
2022/11/04 08:06:29;0.00;0.00;0.62;0.00;0.00;0.62;2.30;1.27;;;24.30;27.40;;;;;;2266316;61;20512;-62
2022/11/04 08:09:15;0.00;0.00;0.62;0.00;0.00;0.62;1.67;1.07;;;24.30;27.40;;;;;;2266232;61;20404;-63
2022/11/04 08:11:59;0.00;0.00;0.62;0.00;0.00;0.62;2.37;1.20;;;24.30;27.30;;;;;;2265505;61;20753;-63
2022/11/04 08:14:44;0.00;0.00;0.62;0.00;0.00;0.62;1.90;1.10;;;24.30;27.30;;;;;;2266142;61;20361;-63
2022/11/04 08:17:29;0.00;0.00;0.62;0.00;0.00;0.62;1.77;1.03;;;24.40;27.30;;;;;;2266426;61;20400;-63
2022/11/04 08:20:15;0.00;0.00;0.62;0.00;0.00;0.62;1.93;1.27;;;24.40;27.30;;;;;;2265509;61;20365;-62
2022/11/04 08:23:00;0.00;0.00;0.62;0.00;0.00;0.62;1.60;1.00;;;24.40;27.80;;;;;;2266298;61;20360;-62
2022/11/04 08:25:45;0.00;0.00;0.62;0.00;0.00;0.62;1.87;1.40;;;24.50;27.30;;;;;;2266284;61;20448;-62
2022/11/04 08:28:31;0.00;0.00;0.62;0.00;0.00;0.62;1.63;1.10;;;24.50;27.30;;;;;;2265640;61;20361;-63
2022/11/04 08:31:18;0.00;0.00;0.62;0.00;0.00;0.62;1.87;1.20;;;24.50;27.30;;;;;;2266169;61;20360;-63
2022/11/04 08:34:04;0.00;0.00;0.62;0.00;0.00;0.62;1.80;0.90;;;24.50;27.30;;;;;;2265578;61;20615;-63
2022/11/04 08:36:52;0.00;0.00;0.62;0.00;0.00;0.62;2.03;1.30;;;24.60;27.30;;;;;;2266252;61;20380;-63
2022/11/04 08:39:36;0.00;0.00;0.62;0.00;0.00;0.62;2.13;1.20;;;24.60;27.20;;;;;;2266425;61;20357;-66
2022/11/04 08:42:21;0.00;0.00;0.62;0.00;0.00;0.62;1.80;1.30;;;24.60;27.20;;;;;;2265537;61;20776;-71
2022/11/04 08:45:08;0.00;0.00;0.62;0.00;0.00;0.62;3.37;1.47;;;24.60;27.20;;;;;;2265623;61;20384;-70
2022/11/04 08:47:53;0.00;0.00;0.62;0.00;0.00;0.62;1.87;1.20;;;24.60;27.30;;;;;;2266277;61;20408;-72
2022/11/04 08:50:38;0.00;0.00;0.62;0.00;0.00;0.62;1.50;0.90;;;24.60;27.30;;;;;;2265771;61;20407;-72
2022/11/04 08:53:25;0.00;0.00;0.62;0.00;0.00;0.62;2.00;1.20;;;24.70;27.40;;;;;;2265993;61;20464;-73
2022/11/04 08:56:16;0.00;0.00;0.62;0.00;0.00;0.62;2.27;1.60;;;24.70;27.40;;;;;;2265500;61;20385;-64
2022/11/04 08:59:03;0.00;0.00;0.62;0.00;0.00;0.62;1.90;1.13;;;24.70;27.40;;;;;;2266274;61;20357;-69
2022/11/04 09:01:47;0.00;0.00;0.62;0.00;0.00;0.62;1.70;1.17;;;24.80;27.40;;;;;;2266244;61;20465;-67
2022/11/04 09:04:33;0.00;0.00;0.62;0.00;0.00;0.62;2.00;1.37;;;24.80;27.40;;;;;;2265163;61;20416;-70
2022/11/04 09:07:18;0.00;0.00;0.62;0.00;0.00;0.62;2.30;1.30;;;24.80;27.40;;;;;;2266054;61;20444;-71
2022/11/04 09:10:05;0.00;0.00;0.62;0.00;0.00;0.62;1.90;1.37;;;24.90;27.50;;;;;;2265893;61;20726;-69
2022/11/04 09:12:50;0.00;0.00;0.62;0.00;0.00;0.62;1.80;1.20;;;24.80;27.40;;;;;;2265627;61;20357;-69
2022/11/04 09:15:35;0.00;0.00;0.62;0.00;0.00;0.62;2.40;1.30;;;24.90;27.50;;;;;;2265921;61;20725;-74
2022/11/04 09:18:20;0.00;0.00;0.62;0.00;0.00;0.62;1.80;1.00;;;24.90;27.50;;;;;;2265487;61;20416;-64
2022/11/04 09:21:07;0.00;0.00;0.62;0.00;0.00;0.62;1.60;1.07;;;24.90;27.50;;;;;;2266221;61;20368;-64
2022/11/04 09:23:53;0.00;0.00;0.62;0.00;0.00;0.62;1.80;1.10;;;24.90;27.40;;;;;;2265797;61;20717;-65
2022/11/04 09:26:39;0.00;0.00;0.62;0.00;0.00;0.62;1.90;1.20;;;25.00;27.50;;;;;;2265453;61;20412;-64
2022/11/04 09:29:24;0.00;0.00;0.62;0.00;0.00;0.62;2.00;1.00;;;25.00;27.50;;;;;;2266021;61;20368;-70
2022/11/04 09:32:09;0.00;0.00;0.62;0.00;0.00;0.62;2.50;1.87;;;25.00;27.40;;;;;;2266004;61;20625;-69
2022/11/04 09:34:54;0.00;0.00;0.62;0.00;0.00;0.62;2.90;1.50;;;25.10;27.50;;;;;;2265646;61;20396;-68
2022/11/04 09:37:38;0.00;0.00;0.62;0.00;0.00;0.62;3.27;2.10;;;25.10;27.40;;;;;;2265858;61;20380;-69
2022/11/04 09:40:24;0.00;0.00;0.62;0.00;0.00;0.62;2.30;1.60;;;25.10;27.40;;;;;;2265445;61;20388;-75
2022/11/04 09:43:27;0.00;0.00;0.62;0.00;0.00;0.62;2.70;1.50;;;25.10;27.40;;;;;;2266053;61;20361;-71
2022/11/04 09:46:13;0.00;0.00;0.62;0.00;0.00;0.62;2.13;1.40;;;25.10;27.40;;;;;;2265966;61;20412;-69
2022/11/04 09:49:01;0.00;0.00;0.62;0.00;0.00;0.62;2.33;1.40;;;25.10;27.30;;;;;;2265759;61;20660;-70
2022/11/04 09:51:48;0.00;0.00;0.62;0.00;0.00;0.62;2.83;1.93;;;25.20;27.40;;;;;;2265862;61;20353;-62
2022/11/04 09:54:41;0.00;0.00;0.62;0.00;0.00;0.62;2.27;1.67;;;25.20;27.40;;;;;;2266049;61;20732;-62
2022/11/04 09:57:27;0.00;0.00;0.62;0.00;0.00;0.62;3.63;1.63;;;25.20;27.40;;;;;;2265890;61;20377;-63
2022/11/04 10:00:16;0.00;0.00;0.62;0.00;0.00;0.62;2.20;1.63;;;25.30;27.40;;;;;;2265638;61;20396;-70
2022/11/04 10:03:19;0.00;0.00;0.62;0.00;0.00;0.62;2.47;2.03;;;25.20;27.30;;;;;;2265331;61;20725;-65
2022/11/04 10:06:29;0.00;0.00;0.62;0.00;0.00;0.62;2.10;1.40;;;25.30;27.40;;;;;;2265665;61;20694;-67
2022/11/04 10:09:28;0.00;0.00;0.62;0.00;0.00;0.62;2.30;1.90;;;25.30;27.30;;;;;;2266089;61;20369;-66
2022/11/04 10:12:35;0.00;0.00;0.62;0.00;0.00;0.62;2.40;1.90;;;25.30;27.30;;;;;;2265727;61;20628;-71
2022/11/04 10:16:00;0.00;0.00;0.62;0.00;0.00;0.62;2.70;2.10;;;25.30;27.40;;;;;;2265586;61;20403;-70
2022/11/04 10:19:05;0.00;0.00;0.62;0.00;0.00;0.62;3.17;2.13;;;25.40;27.50;;;;;;2264978;61;20361;-69
2022/11/04 10:22:03;0.00;0.00;0.62;0.00;0.00;0.62;2.97;1.80;;;25.40;28.00;;;;;;2265724;61;20601;-71
2022/11/04 10:25:00;0.00;0.00;0.62;0.00;0.00;0.62;2.67;1.70;;;25.40;27.50;;;;;;2265162;61;20381;-71
2022/11/04 10:27:47;0.00;0.00;0.62;0.00;0.00;0.62;2.73;2.10;;;25.40;27.50;;;;;;2265468;61;20447;-63
2022/11/04 10:30:33;0.00;0.00;0.62;0.00;0.00;0.62;2.60;1.80;;;25.40;27.50;;;;;;2265970;61;20407;-67
2022/11/04 10:33:27;0.00;0.00;0.62;0.00;0.00;0.62;2.70;1.80;;;25.40;27.50;;;;;;2265197;61;20472;-67
2022/11/04 10:36:12;0.00;0.00;0.62;0.00;0.00;0.62;2.27;1.73;;;25.50;27.60;;;;;;2265663;61;20381;-68
2022/11/04 10:38:57;0.00;0.00;0.62;0.00;0.00;0.62;2.60;1.80;;;25.50;27.60;;;;;;2266198;61;20403;-70
2022/11/04 10:41:44;0.00;0.00;0.62;0.00;0.00;0.62;3.70;2.13;;;25.50;27.50;;;;;;2265738;61;20364;-70
2022/11/04 10:44:33;0.00;0.00;0.62;0.00;0.00;0.62;3.47;2.27;;;25.50;27.50;;;;;;2265752;61;20341;-70
2022/11/04 10:47:32;0.00;0.00;0.62;0.00;0.00;0.62;2.63;1.70;;;25.60;27.60;;;;;;2265277;61;20757;-73
2022/11/04 10:50:28;0.00;0.00;0.62;0.00;0.00;0.62;3.33;2.00;;;25.60;27.60;;;;;;2265726;61;20407;-70
2022/11/04 10:53:16;0.00;0.00;0.62;0.00;0.00;0.62;2.63;2.00;;;25.60;27.60;;;;;;2264803;61;20365;-67
2022/11/04 10:56:10;0.00;0.00;0.62;0.00;0.00;0.62;2.37;1.80;;;25.70;27.60;;;;;;2299475;58;20407;-72
2022/11/04 10:59:03;0.00;0.00;0.62;0.00;0.00;0.62;2.30;1.60;;;25.70;27.60;;;;;;2265507;61;20786;-70
2022/11/04 11:01:50;0.00;0.00;0.62;0.00;0.00;0.62;2.90;2.07;;;25.70;27.50;;;;;;2264420;61;20364;-71
2022/11/04 11:04:39;0.00;0.00;0.62;0.00;0.00;0.62;2.30;1.50;;;25.80;27.60;;;;;;2265108;61;20403;-68
2022/11/04 11:07:35;0.00;0.00;0.62;0.00;0.00;0.62;2.10;1.50;;;25.80;27.50;;;;;;2265613;61;20638;-70
2022/11/04 11:10:23;0.00;0.00;0.62;0.00;0.00;0.62;2.10;1.50;;;25.80;27.60;;;;;;2264844;61;20370;-71
2022/11/04 11:13:25;0.00;0.00;0.62;0.00;0.00;0.62;2.73;1.40;;;25.80;27.50;;;;;;2265272;61;20690;-64
2022/11/04 11:16:16;0.00;0.00;0.62;0.00;0.00;0.62;5.20;1.80;;;25.80;27.50;;;;;;2265551;61;20392;-68
2022/11/04 11:19:16;0.00;0.00;0.62;0.00;0.00;0.62;2.03;1.40;;;25.80;27.40;;;;;;2265528;61;20365;-66
2022/11/04 11:22:37;0.00;0.00;0.62;0.00;0.00;0.62;2.17;1.53;;;25.90;28.00;;;;;;2378084;55;20426;-67
2022/11/04 11:25:26;0.00;0.00;0.62;0.00;0.00;0.62;2.03;1.60;;;25.90;27.40;;;;;;2252536;61;20821;-70
2022/11/04 11:28:21;0.00;0.00;0.62;0.00;0.00;0.62;2.13;1.53;;;25.90;27.40;;;;;;2254467;61;20713;-69
2022/11/04 11:31:22;0.00;0.00;0.62;0.00;0.00;0.62;1.83;1.37;;;25.90;27.40;;;;;;2256963;61;20355;-69
2022/11/04 11:34:16;0.00;0.00;0.62;0.00;0.00;0.62;2.30;1.50;;;25.90;27.40;;;;;;2257326;61;20389;-70
2022/11/04 11:37:04;0.00;0.00;0.62;0.00;0.00;0.62;1.60;1.03;;;26.00;27.50;;;;;;2257499;61;20402;-67
2022/11/04 11:39:50;0.00;0.00;0.62;0.00;0.00;0.62;2.27;1.40;;;26.00;27.40;;;;;;2256893;61;20726;-68
2022/11/04 11:42:40;0.00;0.00;0.62;0.00;0.00;0.62;2.07;1.37;;;26.00;27.40;;;;;;2257345;61;20441;-68
2022/11/04 11:45:26;0.00;0.00;0.62;0.00;0.00;0.62;2.37;1.63;;;26.00;27.40;;;;;;2256962;61;20507;-64